sensor_id;sensor_type;location;lat;lon;timestamp;pressure;altitude;pressure_sealevel;temperature;humidity
49473;BME280;67434;50.956;6.918;2023-02-02T00:00:34;101628.81;;;7.14;77.66
49473;BME280;67434;50.956;6.918;2023-02-02T00:03:20;101614.31;;;7.15;77.63
49473;BME280;67434;50.956;6.918;2023-02-02T00:06:05;101619.69;;;7.15;77.32
49473;BME280;67434;50.956;6.918;2023-02-02T00:08:51;101632.09;;;7.16;77.58
49473;BME280;67434;50.956;6.918;2023-02-02T00:11:37;101617.00;;;7.15;77.37
49473;BME280;67434;50.956;6.918;2023-02-02T00:14:23;101614.75;;;7.12;77.44
49473;BME280;67434;50.956;6.918;2023-02-02T00:17:09;101611.03;;;7.13;77.35
49473;BME280;67434;50.956;6.918;2023-02-02T00:19:55;101615.19;;;7.09;77.77
49473;BME280;67434;50.956;6.918;2023-02-02T00:22:41;101624.69;;;7.11;77.76
49473;BME280;67434;50.956;6.918;2023-02-02T00:25:27;101613.53;;;7.08;77.53
49473;BME280;67434;50.956;6.918;2023-02-02T00:28:13;101619.28;;;7.05;77.86
49473;BME280;67434;50.956;6.918;2023-02-02T00:30:59;101610.41;;;7.04;77.58
49473;BME280;67434;50.956;6.918;2023-02-02T00:33:46;101615.56;;;7.06;77.57
49473;BME280;67434;50.956;6.918;2023-02-02T00:36:32;101608.38;;;7.06;77.67
49473;BME280;67434;50.956;6.918;2023-02-02T00:39:19;101610.84;;;7.08;77.54
49473;BME280;67434;50.956;6.918;2023-02-02T00:42:05;101612.50;;;7.09;77.63
49473;BME280;67434;50.956;6.918;2023-02-02T00:44:50;101611.25;;;7.11;77.32
49473;BME280;67434;50.956;6.918;2023-02-02T00:47:55;101613.72;;;7.13;77.19
49473;BME280;67434;50.956;6.918;2023-02-02T00:50:41;101604.00;;;7.12;77.39
49473;BME280;67434;50.956;6.918;2023-02-02T00:53:26;101596.94;;;7.17;76.93
49473;BME280;67434;50.956;6.918;2023-02-02T00:56:12;101595.91;;;7.18;77.31
49473;BME280;67434;50.956;6.918;2023-02-02T00:58:57;101599.00;;;7.15;77.33
49473;BME280;67434;50.956;6.918;2023-02-02T01:01:43;101609.13;;;7.20;77.21
49473;BME280;67434;50.956;6.918;2023-02-02T01:04:29;101593.81;;;7.20;77.49
49473;BME280;67434;50.956;6.918;2023-02-02T01:07:14;101601.66;;;7.22;77.36
49473;BME280;67434;50.956;6.918;2023-02-02T01:10:00;101601.47;;;7.24;77.82
49473;BME280;67434;50.956;6.918;2023-02-02T01:12:46;101602.28;;;7.24;77.29
49473;BME280;67434;50.956;6.918;2023-02-02T01:15:31;101612.00;;;7.25;77.03
49473;BME280;67434;50.956;6.918;2023-02-02T01:18:17;101606.00;;;7.23;77.05
49473;BME280;67434;50.956;6.918;2023-02-02T01:21:03;101599.81;;;7.22;77.31
49473;BME280;67434;50.956;6.918;2023-02-02T01:23:49;101610.34;;;7.24;77.12
49473;BME280;67434;50.956;6.918;2023-02-02T01:26:35;101624.41;;;7.26;77.07
49473;BME280;67434;50.956;6.918;2023-02-02T01:29:20;101625.84;;;7.29;77.01
49473;BME280;67434;50.956;6.918;2023-02-02T01:32:06;101620.91;;;7.26;77.29
49473;BME280;67434;50.956;6.918;2023-02-02T01:34:52;101629.78;;;7.26;77.67
49473;BME280;67434;50.956;6.918;2023-02-02T01:37:38;101625.88;;;7.22;78.31
49473;BME280;67434;50.956;6.918;2023-02-02T01:40:23;101625.47;;;7.18;78.88
49473;BME280;67434;50.956;6.918;2023-02-02T01:43:20;101628.19;;;7.05;80.38
49473;BME280;67434;50.956;6.918;2023-02-02T01:46:10;101628.41;;;7.04;80.81
49473;BME280;67434;50.956;6.918;2023-02-02T01:49:06;101626.34;;;6.99;81.68
49473;BME280;67434;50.956;6.918;2023-02-02T01:51:56;101631.72;;;6.99;81.78
49473;BME280;67434;50.956;6.918;2023-02-02T01:54:51;101643.13;;;6.95;82.09
49473;BME280;67434;50.956;6.918;2023-02-02T01:57:42;101639.81;;;6.93;82.99
49473;BME280;67434;50.956;6.918;2023-02-02T02:00:29;101646.44;;;6.90;82.44
49473;BME280;67434;50.956;6.918;2023-02-02T02:03:17;101646.03;;;6.86;82.41
49473;BME280;67434;50.956;6.918;2023-02-02T02:06:07;101642.91;;;6.89;82.70
49473;BME280;67434;50.956;6.918;2023-02-02T02:08:59;101654.28;;;6.92;82.23
49473;BME280;67434;50.956;6.918;2023-02-02T02:11:47;101661.31;;;6.93;82.19
49473;BME280;67434;50.956;6.918;2023-02-02T02:14:33;101652.63;;;6.90;82.39
49473;BME280;67434;50.956;6.918;2023-02-02T02:33:59;101629.91;;;6.86;82.18
49473;BME280;67434;50.956;6.918;2023-02-02T02:36:56;101633.22;;;6.88;82.35
49473;BME280;67434;50.956;6.918;2023-02-02T02:40:10;101636.72;;;6.89;82.02
49473;BME280;67434;50.956;6.918;2023-02-02T02:43:05;101631.53;;;6.94;81.85
49473;BME280;67434;50.956;6.918;2023-02-02T02:45:54;101631.75;;;6.93;81.41
49473;BME280;67434;50.956;6.918;2023-02-02T02:48:43;101618.91;;;6.95;81.50
49473;BME280;67434;50.956;6.918;2023-02-02T02:51:44;101626.34;;;6.99;80.68
49473;BME280;67434;50.956;6.918;2023-02-02T02:54:33;101623.44;;;7.01;80.69
49473;BME280;67434;50.956;6.918;2023-02-02T02:57:33;101631.69;;;7.06;80.55
49473;BME280;67434;50.956;6.918;2023-02-02T03:04:11;101633.78;;;7.10;79.67
49473;BME280;67434;50.956;6.918;2023-02-02T03:06:53;101632.75;;;7.11;80.04
49473;BME280;67434;50.956;6.918;2023-02-02T03:09:42;101641.03;;;7.10;80.06
49473;BME280;67434;50.956;6.918;2023-02-02T03:12:28;101636.66;;;7.15;80.29
49473;BME280;67434;50.956;6.918;2023-02-02T03:15:15;101633.97;;;7.15;79.88
49473;BME280;67434;50.956;6.918;2023-02-02T03:18:01;101634.00;;;7.09;79.87
49473;BME280;67434;50.956;6.918;2023-02-02T03:20:46;101636.06;;;7.07;80.48
49473;BME280;67434;50.956;6.918;2023-02-02T03:23:32;101641.84;;;7.04;81.45
49473;BME280;67434;50.956;6.918;2023-02-02T03:26:18;101625.72;;;7.04;81.26
49473;BME280;67434;50.956;6.918;2023-02-02T03:29:04;101642.66;;;7.04;80.85
49473;BME280;67434;50.956;6.918;2023-02-02T03:31:50;101640.41;;;7.01;81.56
49473;BME280;67434;50.956;6.918;2023-02-02T03:34:36;101635.06;;;6.95;81.57
49473;BME280;67434;50.956;6.918;2023-02-02T03:37:21;101644.16;;;6.94;81.81
49473;BME280;67434;50.956;6.918;2023-02-02T03:40:08;101644.16;;;6.94;81.45
49473;BME280;67434;50.956;6.918;2023-02-02T03:42:54;101649.53;;;6.94;81.83
49473;BME280;67434;50.956;6.918;2023-02-02T03:45:40;101645.41;;;6.91;82.33
49473;BME280;67434;50.956;6.918;2023-02-02T03:48:26;101649.53;;;6.94;82.57
49473;BME280;67434;50.956;6.918;2023-02-02T03:51:13;101647.66;;;6.94;81.91
49473;BME280;67434;50.956;6.918;2023-02-02T03:53:59;101650.56;;;6.93;82.19
49473;BME280;67434;50.956;6.918;2023-02-02T03:56:44;101653.69;;;6.89;82.69
49473;BME280;67434;50.956;6.918;2023-02-02T03:59:30;101653.28;;;6.86;82.06
49473;BME280;67434;50.956;6.918;2023-02-02T04:02:15;101656.97;;;6.92;82.17
49473;BME280;67434;50.956;6.918;2023-02-02T04:05:01;101659.06;;;6.89;82.46
49473;BME280;67434;50.956;6.918;2023-02-02T04:07:47;101652.03;;;6.88;82.58
49473;BME280;67434;50.956;6.918;2023-02-02T04:10:33;101649.94;;;6.90;83.06
49473;BME280;67434;50.956;6.918;2023-02-02T04:13:19;101658.44;;;6.81;83.37
49473;BME280;67434;50.956;6.918;2023-02-02T04:16:05;101655.16;;;6.79;83.60
49473;BME280;67434;50.956;6.918;2023-02-02T04:18:51;101655.13;;;6.85;83.06
49473;BME280;67434;50.956;6.918;2023-02-02T04:21:36;101654.09;;;6.86;83.21
49473;BME280;67434;50.956;6.918;2023-02-02T04:24:22;101664.44;;;6.83;83.43
49473;BME280;67434;50.956;6.918;2023-02-02T04:27:07;101660.94;;;6.82;83.70
49473;BME280;67434;50.956;6.918;2023-02-02T04:29:53;101673.75;;;6.80;83.45
49473;BME280;67434;50.956;6.918;2023-02-02T04:32:38;101671.91;;;6.74;83.72
49473;BME280;67434;50.956;6.918;2023-02-02T04:35:24;101666.53;;;6.74;84.06
49473;BME280;67434;50.956;6.918;2023-02-02T04:38:10;101672.31;;;6.78;84.30
49473;BME280;67434;50.956;6.918;2023-02-02T04:40:55;101667.56;;;6.73;84.61
49473;BME280;67434;50.956;6.918;2023-02-02T04:43:41;101666.75;;;6.73;84.73
49473;BME280;67434;50.956;6.918;2023-02-02T04:46:26;101672.53;;;6.70;84.76
49473;BME280;67434;50.956;6.918;2023-02-02T04:49:13;101682.00;;;6.66;84.74
49473;BME280;67434;50.956;6.918;2023-02-02T04:51:58;101681.19;;;6.65;84.73
49473;BME280;67434;50.956;6.918;2023-02-02T04:54:44;101685.53;;;6.66;85.34
49473;BME280;67434;50.956;6.918;2023-02-02T04:57:29;101687.41;;;6.59;85.77
49473;BME280;67434;50.956;6.918;2023-02-02T05:00:15;101685.31;;;6.68;85.38
49473;BME280;67434;50.956;6.918;2023-02-02T05:03:01;101686.78;;;6.64;84.99
49473;BME280;67434;50.956;6.918;2023-02-02T05:05:46;101688.00;;;6.61;85.85
49473;BME280;67434;50.956;6.918;2023-02-02T05:08:33;101683.06;;;6.58;85.81
49473;BME280;67434;50.956;6.918;2023-02-02T05:11:22;101688.63;;;6.63;85.77
49473;BME280;67434;50.956;6.918;2023-02-02T05:14:08;101691.31;;;6.63;85.88
49473;BME280;67434;50.956;6.918;2023-02-02T05:16:54;101689.03;;;6.60;85.60
49473;BME280;67434;50.956;6.918;2023-02-02T05:19:40;101687.59;;;6.57;85.76
49473;BME280;67434;50.956;6.918;2023-02-02T05:22:26;101696.28;;;6.59;85.33
49473;BME280;67434;50.956;6.918;2023-02-02T05:25:11;101697.94;;;6.61;85.78
49473;BME280;67434;50.956;6.918;2023-02-02T05:27:57;101699.38;;;6.56;86.17
49473;BME280;67434;50.956;6.918;2023-02-02T05:30:43;101698.34;;;6.57;85.98
49473;BME280;67434;50.956;6.918;2023-02-02T05:33:28;101698.56;;;6.56;85.88
49473;BME280;67434;50.956;6.918;2023-02-02T05:36:14;101687.41;;;6.59;85.75
49473;BME280;67434;50.956;6.918;2023-02-02T05:38:59;101692.97;;;6.64;85.71
49473;BME280;67434;50.956;6.918;2023-02-02T05:41:45;101685.13;;;6.63;86.05
49473;BME280;67434;50.956;6.918;2023-02-02T05:44:31;101680.56;;;6.63;85.59
49473;BME280;67434;50.956;6.918;2023-02-02T05:47:17;101680.34;;;6.65;85.88
49473;BME280;67434;50.956;6.918;2023-02-02T05:50:02;101688.00;;;6.61;86.15
49473;BME280;67434;50.956;6.918;2023-02-02T05:52:48;101690.28;;;6.64;85.78
49473;BME280;67434;50.956;6.918;2023-02-02T05:55:36;101680.38;;;6.58;85.81
49473;BME280;67434;50.956;6.918;2023-02-02T05:58:22;101691.72;;;6.60;86.02
49473;BME280;67434;50.956;6.918;2023-02-02T06:01:08;101676.84;;;6.64;85.76
49473;BME280;67434;50.956;6.918;2023-02-02T06:03:54;101670.84;;;6.62;85.75
49473;BME280;67434;50.956;6.918;2023-02-02T06:06:40;101676.44;;;6.61;85.63
49473;BME280;67434;50.956;6.918;2023-02-02T06:09:26;101682.84;;;6.59;86.10
49473;BME280;67434;50.956;6.918;2023-02-02T06:12:12;101686.78;;;6.57;86.21
49473;BME280;67434;50.956;6.918;2023-02-02T06:14:57;101701.44;;;6.54;85.91
49473;BME280;67434;50.956;6.918;2023-02-02T06:17:43;101701.66;;;6.59;85.36
49473;BME280;67434;50.956;6.918;2023-02-02T06:20:28;101703.50;;;6.59;85.47
49473;BME280;67434;50.956;6.918;2023-02-02T06:23:14;101713.22;;;6.60;85.35
49473;BME280;67434;50.956;6.918;2023-02-02T06:26:00;101724.59;;;6.62;85.22
49473;BME280;67434;50.956;6.918;2023-02-02T06:28:49;101710.31;;;6.68;84.94
49473;BME280;67434;50.956;6.918;2023-02-02T06:31:35;101722.72;;;6.63;84.79
49473;BME280;67434;50.956;6.918;2023-02-02T06:34:21;101718.81;;;6.65;84.78
49473;BME280;67434;50.956;6.918;2023-02-02T06:37:06;101732.03;;;6.67;84.08
49473;BME280;67434;50.956;6.918;2023-02-02T06:39:52;101729.16;;;6.75;84.51
49473;BME280;67434;50.956;6.918;2023-02-02T06:42:37;101732.66;;;6.75;84.21
49473;BME280;67434;50.956;6.918;2023-02-02T06:45:24;101720.28;;;6.74;83.56
49473;BME280;67434;50.956;6.918;2023-02-02T06:48:09;101730.59;;;6.77;83.91
49473;BME280;67434;50.956;6.918;2023-02-02T06:50:58;101732.25;;;6.78;83.44
49473;BME280;67434;50.956;6.918;2023-02-02T06:53:46;101711.59;;;6.79;83.36
49473;BME280;67434;50.956;6.918;2023-02-02T06:56:33;101724.81;;;6.80;83.01
49473;BME280;67434;50.956;6.918;2023-02-02T06:59:19;101732.88;;;6.80;83.28
49473;BME280;67434;50.956;6.918;2023-02-02T07:02:07;101733.91;;;6.79;83.38
49473;BME280;67434;50.956;6.918;2023-02-02T07:04:54;101730.59;;;6.84;83.21
49473;BME280;67434;50.956;6.918;2023-02-02T07:07:39;101733.50;;;6.82;83.44
49473;BME280;67434;50.956;6.918;2023-02-02T07:10:25;101736.16;;;6.89;82.27
49473;BME280;67434;50.956;6.918;2023-02-02T07:13:11;101738.03;;;6.88;82.51
49473;BME280;67434;50.956;6.918;2023-02-02T07:15:56;101746.91;;;6.89;82.58
49473;BME280;67434;50.956;6.918;2023-02-02T07:18:43;101745.88;;;6.90;82.44
49473;BME280;67434;50.956;6.918;2023-02-02T07:21:49;101748.78;;;6.88;82.18
49473;BME280;67434;50.956;6.918;2023-02-02T07:24:35;101756.44;;;6.92;82.90
49473;BME280;67434;50.956;6.918;2023-02-02T07:27:22;101751.66;;;6.94;82.35
49473;BME280;67434;50.956;6.918;2023-02-02T07:30:08;101751.66;;;6.94;82.13
49473;BME280;67434;50.956;6.918;2023-02-02T07:32:54;101755.81;;;6.96;81.91
49473;BME280;67434;50.956;6.918;2023-02-02T07:35:40;101754.75;;;6.97;82.02
49473;BME280;67434;50.956;6.918;2023-02-02T07:38:26;101756.22;;;7.00;82.12
49473;BME280;67434;50.956;6.918;2023-02-02T07:41:12;101760.34;;;7.02;81.91
49473;BME280;67434;50.956;6.918;2023-02-02T07:43:58;101755.38;;;7.06;81.96
49473;BME280;67434;50.956;6.918;2023-02-02T07:46:44;101762.00;;;7.10;81.57
49473;BME280;67434;50.956;6.918;2023-02-02T07:49:30;101759.09;;;7.05;81.73
49473;BME280;67434;50.956;6.918;2023-02-02T07:52:15;101764.50;;;7.11;81.62
49473;BME280;67434;50.956;6.918;2023-02-02T07:55:01;101759.53;;;7.15;81.70
49473;BME280;67434;50.956;6.918;2023-02-02T07:57:47;101761.34;;;7.28;80.95
49473;BME280;67434;50.956;6.918;2023-02-02T08:00:32;101773.16;;;7.20;81.38
49473;BME280;67434;50.956;6.918;2023-02-02T08:02:58;101765.13;;;7.07;81.95
49473;BME280;67434;50.956;6.918;2023-02-02T08:05:23;101775.22;;;7.05;82.24
49473;BME280;67434;50.956;6.918;2023-02-02T08:07:48;101761.16;;;7.03;82.61
49473;BME280;67434;50.956;6.918;2023-02-02T08:10:14;101758.69;;;7.01;82.44
49473;BME280;67434;50.956;6.918;2023-02-02T08:12:39;101768.63;;;7.01;82.50
49473;BME280;67434;50.956;6.918;2023-02-02T08:15:05;101765.72;;;6.96;83.09
49473;BME280;67434;50.956;6.918;2023-02-02T08:17:31;101771.53;;;6.93;83.20
49473;BME280;67434;50.956;6.918;2023-02-02T08:19:57;101768.84;;;6.93;83.09
49473;BME280;67434;50.956;6.918;2023-02-02T08:22:22;101777.31;;;6.89;83.68
49473;BME280;67434;50.956;6.918;2023-02-02T08:24:48;101772.97;;;6.95;83.30
49473;BME280;67434;50.956;6.918;2023-02-02T08:27:14;101779.16;;;6.96;83.49
49473;BME280;67434;50.956;6.918;2023-02-02T08:29:40;101778.53;;;6.94;83.93
49473;BME280;67434;50.956;6.918;2023-02-02T08:32:05;101782.47;;;6.98;83.64
49473;BME280;67434;50.956;6.918;2023-02-02T08:34:30;101783.72;;;6.95;83.68
49473;BME280;67434;50.956;6.918;2023-02-02T08:36:58;101776.47;;;6.96;83.59
49473;BME280;67434;50.956;6.918;2023-02-02T08:39:24;101794.25;;;6.97;83.56
49473;BME280;67434;50.956;6.918;2023-02-02T08:41:50;101795.50;;;6.94;83.32
49473;BME280;67434;50.956;6.918;2023-02-02T08:44:21;101795.72;;;6.93;83.83
49473;BME280;67434;50.956;6.918;2023-02-02T08:46:47;101792.00;;;6.94;82.93
49473;BME280;67434;50.956;6.918;2023-02-02T08:49:12;101789.31;;;6.94;83.09
49473;BME280;67434;50.956;6.918;2023-02-02T08:51:38;101794.25;;;6.97;83.18
49473;BME280;67434;50.956;6.918;2023-02-02T08:54:03;101800.88;;;7.01;83.19
49473;BME280;67434;50.956;6.918;2023-02-02T08:56:29;101808.31;;;7.05;83.26
49473;BME280;67434;50.956;6.918;2023-02-02T08:58:56;101804.78;;;7.05;83.00
49473;BME280;67434;50.956;6.918;2023-02-02T09:01:27;101803.59;;;7.07;83.18
49473;BME280;67434;50.956;6.918;2023-02-02T09:03:57;101812.88;;;7.11;82.78
49473;BME280;67434;50.956;6.918;2023-02-02T09:06:29;101815.16;;;7.08;82.98
49473;BME280;67434;50.956;6.918;2023-02-02T09:08:56;101808.75;;;7.09;82.93
49473;BME280;67434;50.956;6.918;2023-02-02T09:11:41;101808.13;;;7.20;83.13
49473;BME280;67434;50.956;6.918;2023-02-02T09:14:26;101812.03;;;7.24;82.77
49473;BME280;67434;50.956;6.918;2023-02-02T09:17:12;101814.50;;;7.32;82.14
49473;BME280;67434;50.956;6.918;2023-02-02T09:19:58;101799.59;;;7.36;81.43
49473;BME280;67434;50.956;6.918;2023-02-02T09:22:43;101818.63;;;7.41;81.32
49473;BME280;67434;50.956;6.918;2023-02-02T09:25:29;101829.19;;;7.43;81.45
49473;BME280;67434;50.956;6.918;2023-02-02T09:28:14;101833.34;;;7.45;81.48
49473;BME280;67434;50.956;6.918;2023-02-02T09:31:01;101848.88;;;7.43;81.04
49473;BME280;67434;50.956;6.918;2023-02-02T09:33:47;101843.47;;;7.43;80.86
49473;BME280;67434;50.956;6.918;2023-02-02T09:36:33;101837.06;;;7.44;81.36
49473;BME280;67434;50.956;6.918;2023-02-02T09:39:19;101849.47;;;7.45;81.47
49473;BME280;67434;50.956;6.918;2023-02-02T09:43:00;101860.00;;;7.40;81.75
49473;BME280;67434;50.956;6.918;2023-02-02T09:45:30;101862.50;;;7.35;82.15
49473;BME280;67434;50.956;6.918;2023-02-02T09:51:39;101867.06;;;7.28;83.01
49473;BME280;67434;50.956;6.918;2023-02-02T09:54:30;101874.50;;;7.26;83.05
49473;BME280;67434;50.956;6.918;2023-02-02T09:57:22;101884.44;;;7.26;83.23
49473;BME280;67434;50.956;6.918;2023-02-02T10:00:30;101880.31;;;7.30;83.11
49473;BME280;67434;50.956;6.918;2023-02-02T10:12:34;101903.06;;;7.14;84.96
49473;BME280;67434;50.956;6.918;2023-02-02T10:15:36;101913.81;;;7.27;84.75
49473;BME280;67434;50.956;6.918;2023-02-02T10:21:39;101923.75;;;7.27;84.05
49473;BME280;67434;50.956;6.918;2023-02-02T10:24:28;101907.41;;;7.28;84.04
49473;BME280;67434;50.956;6.918;2023-02-02T10:27:16;101922.09;;;7.32;83.43
49473;BME280;67434;50.956;6.918;2023-02-02T10:30:15;101932.84;;;7.39;83.86
49473;BME280;67434;50.956;6.918;2023-02-02T10:33:07;101925.19;;;7.36;83.55
49473;BME280;67434;50.956;6.918;2023-02-02T10:38:56;101955.19;;;7.39;82.79
49473;BME280;67434;50.956;6.918;2023-02-02T10:42:34;101938.84;;;7.34;83.24
49473;BME280;67434;50.956;6.918;2023-02-02T10:45:12;101943.19;;;7.42;82.68
49473;BME280;67434;50.956;6.918;2023-02-02T10:48:00;101943.44;;;7.47;82.12
49473;BME280;67434;50.956;6.918;2023-02-02T10:50:49;101941.56;;;7.54;81.90
49473;BME280;67434;50.956;6.918;2023-02-02T10:53:36;101942.19;;;7.63;81.40
49473;BME280;67434;50.956;6.918;2023-02-02T10:56:33;101930.56;;;7.69;80.89
49473;BME280;67434;50.956;6.918;2023-02-02T10:59:30;101937.81;;;7.68;80.73
49473;BME280;67434;50.956;6.918;2023-02-02T11:02:17;101930.56;;;7.69;80.92
49473;BME280;67434;50.956;6.918;2023-02-02T11:05:03;101946.31;;;7.72;80.38
49473;BME280;67434;50.956;6.918;2023-02-02T11:08:26;101937.00;;;7.68;80.52
49473;BME280;67434;50.956;6.918;2023-02-02T11:11:22;101936.59;;;7.71;80.40
49473;BME280;67434;50.956;6.918;2023-02-02T11:17:04;101938.44;;;7.70;80.40
49473;BME280;67434;50.956;6.918;2023-02-02T11:19:51;101944.44;;;7.79;79.96
49473;BME280;67434;50.956;6.918;2023-02-02T11:22:39;101938.84;;;7.87;79.52
49473;BME280;67434;50.956;6.918;2023-02-02T11:25:29;101947.56;;;7.89;79.06
49473;BME280;67434;50.956;6.918;2023-02-02T11:28:18;101946.50;;;7.90;78.97
49473;BME280;67434;50.956;6.918;2023-02-02T11:31:05;101948.97;;;7.98;78.64
49473;BME280;67434;50.956;6.918;2023-02-02T11:33:51;101936.13;;;8.00;78.61
49473;BME280;67434;50.956;6.918;2023-02-02T11:37:12;101947.72;;;8.07;78.62
49473;BME280;67434;50.956;6.918;2023-02-02T11:43:18;101959.28;;;8.14;77.31
49473;BME280;67434;50.956;6.918;2023-02-02T11:46:06;101939.00;;;8.19;77.71
49473;BME280;67434;50.956;6.918;2023-02-02T11:49:01;101951.19;;;8.34;76.52
49473;BME280;67434;50.956;6.918;2023-02-02T11:52:02;101947.47;;;8.29;76.44
49473;BME280;67434;50.956;6.918;2023-02-02T11:54:51;101936.91;;;8.34;76.18
49473;BME280;67434;50.956;6.918;2023-02-02T11:57:37;101945.38;;;8.37;76.43
49473;BME280;67434;50.956;6.918;2023-02-02T12:00:23;101935.84;;;8.28;76.39
49473;BME280;67434;50.956;6.918;2023-02-02T12:03:23;101932.72;;;8.44;76.01
49473;BME280;67434;50.956;6.918;2023-02-02T12:06:26;101935.59;;;8.56;75.58
49473;BME280;67434;50.956;6.918;2023-02-02T12:09:20;101924.59;;;8.51;75.10
49473;BME280;67434;50.956;6.918;2023-02-02T12:18:24;101926.69;;;8.56;74.96
49473;BME280;67434;50.956;6.918;2023-02-02T12:24:33;101913.47;;;8.79;74.78
49473;BME280;67434;50.956;6.918;2023-02-02T12:34:19;101920.13;;;8.76;73.51
49473;BME280;67434;50.956;6.918;2023-02-02T12:40:43;101913.97;;;9.01;72.83
49473;BME280;67434;50.956;6.918;2023-02-02T12:43:38;101921.69;;;8.97;72.38
49473;BME280;67434;50.956;6.918;2023-02-02T12:46:28;101911.34;;;8.94;72.43
49473;BME280;67434;50.956;6.918;2023-02-02T12:49:23;101903.41;;;9.24;71.65
49473;BME280;67434;50.956;6.918;2023-02-02T12:55:33;101908.72;;;9.62;70.03
49473;BME280;67434;50.956;6.918;2023-02-02T12:58:44;101902.94;;;9.59;70.13
49473;BME280;67434;50.956;6.918;2023-02-02T13:07:44;101920.00;;;9.53;70.07
49473;BME280;67434;50.956;6.918;2023-02-02T13:10:39;101919.69;;;9.43;70.57
49473;BME280;67434;50.956;6.918;2023-02-02T13:13:32;101926.75;;;9.44;70.66
49473;BME280;67434;50.956;6.918;2023-02-02T13:16:21;101924.78;;;9.26;70.93
49473;BME280;67434;50.956;6.918;2023-02-02T13:19:13;101924.00;;;9.19;70.86
49473;BME280;67434;50.956;6.918;2023-02-02T13:22:06;101926.63;;;9.32;70.80
49473;BME280;67434;50.956;6.918;2023-02-02T13:24:57;101929.44;;;9.44;70.73
49473;BME280;67434;50.956;6.918;2023-02-02T13:27:45;101936.53;;;9.38;70.24
49473;BME280;67434;50.956;6.918;2023-02-02T13:30:33;101942.00;;;9.31;70.92
49473;BME280;67434;50.956;6.918;2023-02-02T13:33:26;101947.06;;;9.15;70.84
49473;BME280;67434;50.956;6.918;2023-02-02T13:36:27;101947.56;;;9.05;71.67
49473;BME280;67434;50.956;6.918;2023-02-02T13:39:21;101927.84;;;9.04;70.87
49473;BME280;67434;50.956;6.918;2023-02-02T13:42:31;101933.06;;;9.31;70.54
49473;BME280;67434;50.956;6.918;2023-02-02T13:54:55;101934.84;;;9.12;70.89
49473;BME280;67434;50.956;6.918;2023-02-02T14:00:51;101920.88;;;9.22;71.31
49473;BME280;67434;50.956;6.918;2023-02-02T14:03:41;101932.25;;;9.30;70.46
49473;BME280;67434;50.956;6.918;2023-02-02T14:06:27;101940.13;;;9.32;70.30
49473;BME280;67434;50.956;6.918;2023-02-02T14:09:17;101958.00;;;9.26;70.12
49473;BME280;67434;50.956;6.918;2023-02-02T14:12:05;101945.75;;;9.24;70.58
49473;BME280;67434;50.956;6.918;2023-02-02T14:14:52;101943.44;;;9.27;70.33
49473;BME280;67434;50.956;6.918;2023-02-02T14:17:48;101927.69;;;9.31;70.01
49473;BME280;67434;50.956;6.918;2023-02-02T14:20:47;101938.03;;;9.34;70.29
49473;BME280;67434;50.956;6.918;2023-02-02T14:23:50;101940.75;;;9.27;70.42
49473;BME280;67434;50.956;6.918;2023-02-02T14:26:48;101944.69;;;9.31;70.23
49473;BME280;67434;50.956;6.918;2023-02-02T14:37:56;101924.63;;;9.21;70.50
49473;BME280;67434;50.956;6.918;2023-02-02T14:40:53;101935.41;;;9.21;70.18
49473;BME280;67434;50.956;6.918;2023-02-02T14:43:46;101936.00;;;9.23;70.36
49473;BME280;67434;50.956;6.918;2023-02-02T14:46:38;101938.50;;;9.24;70.56
49473;BME280;67434;50.956;6.918;2023-02-02T14:49:26;101941.25;;;9.18;70.51
49473;BME280;67434;50.956;6.918;2023-02-02T14:52:20;101943.94;;;9.18;70.67
49473;BME280;67434;50.956;6.918;2023-02-02T14:55:18;101943.94;;;9.18;70.76
49473;BME280;67434;50.956;6.918;2023-02-02T14:58:05;101946.63;;;9.18;71.07
49473;BME280;67434;50.956;6.918;2023-02-02T15:10:08;101975.78;;;9.02;71.82
49473;BME280;67434;50.956;6.918;2023-02-02T15:13:06;101972.66;;;9.05;72.17
49473;BME280;67434;50.956;6.918;2023-02-02T15:16:10;101974.31;;;9.06;71.78
49473;BME280;67434;50.956;6.918;2023-02-02T15:19:19;101973.09;;;9.02;72.08
49473;BME280;67434;50.956;6.918;2023-02-02T15:22:40;101978.22;;;9.11;72.07
49473;BME280;67434;50.956;6.918;2023-02-02T15:25:49;101979.00;;;9.18;72.70
49473;BME280;67434;50.956;6.918;2023-02-02T15:31:45;101984.25;;;9.13;71.83
49473;BME280;67434;50.956;6.918;2023-02-02T15:37:25;101995.25;;;9.11;72.25
49473;BME280;67434;50.956;6.918;2023-02-02T15:40:20;101993.75;;;9.15;71.69
49473;BME280;67434;50.956;6.918;2023-02-02T15:43:09;101995.84;;;9.13;71.34
49473;BME280;67434;50.956;6.918;2023-02-02T15:46:04;101994.81;;;9.14;71.38
49473;BME280;67434;50.956;6.918;2023-02-02T15:52:38;101999.47;;;9.00;71.55
49473;BME280;67434;50.956;6.918;2023-02-02T15:55:32;102001.13;;;9.01;72.27
49473;BME280;67434;50.956;6.918;2023-02-02T15:58:28;101997.16;;;9.04;71.89
49473;BME280;67434;50.956;6.918;2023-02-02T16:01:19;102012.06;;;9.06;71.71
49473;BME280;67434;50.956;6.918;2023-02-02T16:04:13;102010.25;;;9.00;72.04
49473;BME280;67434;50.956;6.918;2023-02-02T16:07:06;102017.34;;;8.95;71.90
49473;BME280;67434;50.956;6.918;2023-02-02T16:10:01;102013.16;;;8.99;71.67
49473;BME280;67434;50.956;6.918;2023-02-02T16:12:48;102026.66;;;8.99;71.89
49473;BME280;67434;50.956;6.918;2023-02-02T16:15:33;102030.81;;;8.95;71.60
49473;BME280;67434;50.956;6.918;2023-02-02T16:18:19;102031.22;;;8.92;71.99
49473;BME280;67434;50.956;6.918;2023-02-02T16:21:08;102044.50;;;8.93;71.64
49473;BME280;67434;50.956;6.918;2023-02-02T16:23:58;102033.31;;;8.90;71.89
49473;BME280;67434;50.956;6.918;2023-02-02T16:26:45;102031.22;;;8.92;72.07
49473;BME280;67434;50.956;6.918;2023-02-02T16:29:31;102031.66;;;8.89;72.02
49473;BME280;67434;50.956;6.918;2023-02-02T16:32:25;102041.38;;;8.90;71.92
49473;BME280;67434;50.956;6.918;2023-02-02T16:35:36;102039.53;;;8.90;71.98
49473;BME280;67434;50.956;6.918;2023-02-02T16:38:33;102042.22;;;8.90;71.93
49473;BME280;67434;50.956;6.918;2023-02-02T16:44:34;102042.22;;;8.90;71.67